createdAt,value
2018-07-12T00:02:06.354Z,94917.53
2018-07-12T00:04:33.960Z,94912.21
2018-07-12T00:07:01.519Z,94912.24
2018-07-12T00:09:28.963Z,94914.31
2018-07-12T00:11:56.413Z,94919.09
2018-07-12T00:14:23.873Z,94923.33
2018-07-12T00:16:51.338Z,94918.81
2018-07-12T00:19:18.911Z,94919.03
2018-07-12T00:21:46.356Z,94928.05
2018-07-12T00:24:13.892Z,94922.41
2018-07-12T00:26:41.353Z,94917.30
2018-07-12T00:29:08.806Z,94924.22
2018-07-12T00:31:36.277Z,94919.71
2018-07-12T00:34:03.746Z,94923.42
2018-07-12T00:36:31.205Z,94922.86
2018-07-12T00:38:58.658Z,94922.78
2018-07-12T00:41:26.132Z,94921.97
2018-07-12T00:43:53.622Z,94916.38
2018-07-12T00:46:21.067Z,94913.44
2018-07-12T00:48:48.530Z,94918.19
2018-07-12T00:51:15.967Z,94920.84
2018-07-12T00:53:43.429Z,94921.12
2018-07-12T00:56:10.903Z,94921.97
2018-07-12T00:58:38.346Z,94923.86
2018-07-12T01:01:05.790Z,94923.83
2018-07-12T01:03:33.247Z,94928.33
2018-07-12T01:06:00.749Z,94919.31
2018-07-12T01:08:28.271Z,94926.23
2018-07-12T01:10:55.862Z,94919.59
2018-07-12T01:13:23.367Z,94923.30
2018-07-12T01:15:50.834Z,94917.70
2018-07-12T01:18:18.298Z,94919.23
2018-07-12T01:20:45.753Z,94920.33
2018-07-12T01:23:13.202Z,94919.52
2018-07-12T01:25:40.638Z,94921.28
2018-07-12T01:28:08.081Z,94925.23
2018-07-12T01:30:35.591Z,94925.80
2018-07-12T01:33:03.061Z,94920.97
2018-07-12T01:35:30.562Z,94918.78
2018-07-12T01:37:58.013Z,94915.84
2018-07-12T01:40:25.517Z,94920.39
2018-07-12T01:42:52.993Z,94921.44
2018-07-12T01:45:20.480Z,94917.94
2018-07-12T01:47:47.959Z,94917.66
2018-07-12T01:50:15.474Z,94918.73
2018-07-12T01:52:42.947Z,94915.23
2018-07-12T01:55:10.406Z,94917.85
2018-07-12T01:57:37.853Z,94923.34
2018-07-12T02:00:05.440Z,94920.85
2018-07-12T02:02:32.911Z,94918.92
2018-07-12T02:05:00.354Z,94916.27
2018-07-12T02:07:27.926Z,94917.81
2018-07-12T02:09:55.392Z,94916.63
2018-07-12T02:12:22.926Z,94925.36
2018-07-12T02:14:50.403Z,94918.62
2018-07-12T02:17:17.905Z,94922.55
2018-07-12T02:19:45.414Z,94921.70
2018-07-12T02:22:12.889Z,94925.34
2018-07-12T02:24:40.354Z,94918.31
2018-07-12T02:27:07.860Z,94925.19
2018-07-12T02:29:35.322Z,94923.86
2018-07-12T02:32:02.790Z,94930.68
2018-07-12T02:34:30.296Z,94924.33
2018-07-12T02:36:57.758Z,94920.63
2018-07-12T02:39:25.231Z,94919.83
2018-07-12T02:41:52.761Z,94921.96
2018-07-12T02:44:20.253Z,94930.14
2018-07-12T02:46:47.698Z,94929.06
2018-07-12T02:49:15.483Z,94929.57
2018-07-12T02:51:42.954Z,94925.07
2018-07-12T02:54:10.469Z,94920.06
2018-07-12T02:56:38.018Z,94924.33
2018-07-12T02:59:05.470Z,94926.41
2018-07-12T03:01:32.947Z,94931.98
2018-07-12T03:04:00.411Z,94924.27
2018-07-12T03:06:27.863Z,94923.94
2018-07-12T03:08:55.344Z,94927.63
2018-07-12T03:11:22.824Z,94924.97
2018-07-12T03:13:50.411Z,94925.50
2018-07-12T03:16:17.887Z,94911.48
2018-07-12T03:18:45.363Z,94911.48
2018-07-12T03:21:12.826Z,94913.89
2018-07-12T03:23:40.334Z,94913.42
2018-07-12T03:26:07.806Z,94915.22
2018-07-12T03:28:35.288Z,94920.57
2018-07-12T03:31:02.752Z,94915.80
2018-07-12T03:33:30.203Z,94919.02
2018-07-12T03:35:57.672Z,94916.94
2018-07-12T03:38:25.179Z,94917.27
2018-07-12T03:40:52.657Z,94922.31
2018-07-12T03:43:20.331Z,94914.63
2018-07-12T03:45:47.789Z,94922.55
2018-07-12T03:48:15.296Z,94920.94
2018-07-12T03:50:42.758Z,94918.95
2018-07-12T03:53:10.234Z,94917.73
2018-07-12T03:55:37.728Z,94921.80
2018-07-12T03:58:05.231Z,94919.25
2018-07-12T04:00:32.903Z,94929.70
2018-07-12T04:03:00.433Z,94926.33
2018-07-12T04:05:27.952Z,94924.96
2018-07-12T04:07:55.401Z,94926.57
2018-07-12T04:10:22.882Z,94933.45
2018-07-12T04:12:50.367Z,94936.14
2018-07-12T04:15:17.846Z,94937.20
2018-07-12T04:17:45.864Z,94934.88
2018-07-12T04:20:13.347Z,94942.27
2018-07-12T04:22:40.799Z,94940.19
2018-07-12T04:25:08.269Z,94947.95
2018-07-12T04:27:35.716Z,94942.89
2018-07-12T04:30:04.216Z,94944.22
2018-07-12T04:32:31.665Z,94943.73
2018-07-12T04:34:59.160Z,94950.19
2018-07-12T04:37:26.610Z,94945.20
2018-07-12T04:39:54.090Z,94941.49
2018-07-12T04:42:21.566Z,94944.63
2018-07-12T04:44:49.022Z,94949.27
2018-07-12T04:47:16.543Z,94954.91
2018-07-12T04:49:43.990Z,94955.36
2018-07-12T04:52:11.442Z,94952.69
2018-07-12T04:54:38.917Z,94949.69
2018-07-12T04:57:06.449Z,94951.64
2018-07-12T04:59:33.897Z,94952.38
2018-07-12T05:02:01.371Z,94945.55
2018-07-12T05:04:28.928Z,94942.88
2018-07-12T05:06:56.400Z,94945.06
2018-07-12T05:09:23.870Z,94955.10
2018-07-12T05:11:51.341Z,94952.23
2018-07-12T05:14:18.938Z,94939.43
2018-07-12T05:16:46.596Z,94945.44
2018-07-12T05:19:14.062Z,94952.21
2018-07-12T05:21:41.520Z,94955.68
2018-07-12T05:24:09.010Z,94950.80
2018-07-12T05:26:36.555Z,94949.81
2018-07-12T05:29:04.013Z,94950.25
2018-07-12T05:31:31.478Z,94959.14
2018-07-12T05:33:58.983Z,94965.38
2018-07-12T05:37:00.909Z,94963.57
2018-07-12T05:39:29.708Z,94965.30
2018-07-12T05:41:58.575Z,94964.25
2018-07-12T05:44:27.370Z,94964.02
2018-07-12T05:46:56.154Z,94971.59
2018-07-12T05:49:25.024Z,94964.40
2018-07-12T05:51:53.865Z,94971.63
2018-07-12T05:54:22.688Z,94967.56
2018-07-12T05:56:51.844Z,94969.06
2018-07-12T05:59:20.887Z,94967.87
2018-07-12T06:02:00.639Z,94971.91
2018-07-12T06:04:29.454Z,94963.83
2018-07-12T06:06:58.286Z,94969.87
2018-07-12T06:09:27.051Z,94974.82
2018-07-12T06:11:55.828Z,94977.27
2018-07-12T06:14:25.030Z,94976.56
2018-07-12T06:16:53.834Z,94972.89
2018-07-12T06:19:22.607Z,94976.45
2018-07-12T06:21:51.397Z,94981.17
2018-07-12T06:24:20.177Z,94978.53
2018-07-12T06:26:48.955Z,94979.03
2018-07-12T06:29:17.762Z,94979.52
2018-07-12T06:31:47.577Z,94986.23
2018-07-12T06:34:16.461Z,94980.92
2018-07-12T06:36:45.426Z,94987.38
2018-07-12T06:39:14.210Z,94984.48
2018-07-12T06:41:43.574Z,94977.80
2018-07-12T06:44:12.407Z,94978.94
2018-07-12T06:46:41.230Z,94974.14
2018-07-12T06:49:10.005Z,94977.95
2018-07-12T06:51:38.827Z,94977.97
2018-07-12T06:54:08.017Z,94976.48
2018-07-12T06:56:37.158Z,94974.56
2018-07-12T06:59:06.553Z,94979.38
2018-07-12T07:01:35.369Z,94980.66
2018-07-12T07:04:04.386Z,94973.13
2018-07-12T07:06:33.153Z,94970.73
2018-07-12T07:09:01.982Z,94980.39
2018-07-12T07:11:30.848Z,94976.63
2018-07-12T07:13:59.716Z,94972.33
2018-07-12T07:16:28.510Z,94972.09
2018-07-12T07:18:57.286Z,94975.27
2018-07-12T07:21:26.070Z,94972.33
2018-07-12T07:23:54.995Z,94969.94
2018-07-12T07:26:23.957Z,94968.81
2018-07-12T07:28:53.208Z,94968.33
2018-07-12T07:31:22.068Z,94971.83
2018-07-12T07:33:51.087Z,94976.63
2018-07-12T07:36:20.174Z,94970.75
2018-07-12T07:38:48.968Z,94971.60
2018-07-12T07:41:18.555Z,94970.25
2018-07-12T07:43:47.320Z,94974.55
2018-07-12T07:46:16.117Z,94972.82
2018-07-12T07:48:45.447Z,94970.39
2018-07-12T07:51:14.203Z,94973.58
2018-07-12T07:53:43.023Z,94971.63
2018-07-12T07:56:11.798Z,94974.69
2018-07-12T07:58:40.783Z,94976.30
2018-07-12T08:01:09.547Z,94975.64
2018-07-12T08:03:38.358Z,94973.50
2018-07-12T08:06:07.227Z,94974.30
2018-07-12T08:08:36.027Z,94972.15
2018-07-12T08:11:04.846Z,94972.89
2018-07-12T08:13:33.637Z,94970.91
2018-07-12T08:16:02.436Z,94965.49
2018-07-12T08:18:31.200Z,94968.16
2018-07-12T08:21:00.004Z,94964.95
2018-07-12T08:23:28.846Z,94963.81
2018-07-12T08:25:57.809Z,94965.05
2018-07-12T08:28:28.646Z,94965.31
2018-07-12T08:30:57.447Z,94969.23
2018-07-12T08:33:26.529Z,94965.99
2018-07-12T08:35:55.482Z,94959.45
2018-07-12T08:38:24.258Z,94957.52
2018-07-12T08:40:53.010Z,94963.35
2018-07-12T08:43:21.880Z,94958.27
2018-07-12T08:45:50.668Z,94961.73
2018-07-12T08:48:19.470Z,94961.11
2018-07-12T08:50:48.276Z,94955.69
2018-07-12T08:53:17.109Z,94957.18
2018-07-12T08:55:45.854Z,94955.81
2018-07-12T08:58:14.613Z,94958.62
2018-07-12T09:00:43.428Z,94959.77
2018-07-12T09:03:12.198Z,94961.84
2018-07-12T09:05:41.083Z,94956.68
2018-07-12T09:08:09.857Z,94956.70
2018-07-12T09:10:38.645Z,94952.42
2018-07-12T09:13:07.433Z,94954.53
2018-07-12T09:15:36.189Z,94954.13
2018-07-12T09:18:05.034Z,94955.83
2018-07-12T09:20:33.777Z,94953.17
2018-07-12T09:23:02.636Z,94957.33
2018-07-12T09:25:31.572Z,94950.80
2018-07-12T09:28:00.511Z,94956.66
2018-07-12T09:30:29.309Z,94953.58
2018-07-12T09:32:58.117Z,94947.53
2018-07-12T09:35:26.890Z,94945.84
2018-07-12T09:37:55.641Z,94951.38
2018-07-12T09:40:24.754Z,94951.23
2018-07-12T09:42:54.064Z,94947.20
2018-07-12T09:45:22.942Z,94940.37
2018-07-12T09:47:51.714Z,94939.98
2018-07-12T09:50:20.523Z,94935.17
2018-07-12T09:52:49.327Z,94932.67
2018-07-12T09:55:18.201Z,94925.41
2018-07-12T09:57:57.992Z,94930.70
2018-07-12T10:01:30.708Z,94926.05
2018-07-12T10:03:59.462Z,94919.88
2018-07-12T10:06:32.215Z,94922.31
2018-07-12T10:10:04.013Z,94919.00
2018-07-12T10:12:37.851Z,94919.35
2018-07-12T10:15:09.631Z,94922.06
2018-07-12T10:17:48.552Z,94911.16
2018-07-12T10:20:17.713Z,94913.25
2018-07-12T10:22:46.508Z,94922.81
2018-07-12T10:25:15.269Z,94913.24
2018-07-12T10:27:44.049Z,94912.98
2018-07-12T10:30:12.827Z,94917.25
2018-07-12T10:32:42.282Z,94915.64
2018-07-12T10:35:11.141Z,94911.75
2018-07-12T10:37:39.899Z,94912.50
2018-07-12T10:40:08.651Z,94906.93
2018-07-12T10:42:37.399Z,94908.26
2018-07-12T10:45:06.238Z,94912.05
2018-07-12T10:47:35.131Z,94903.69
2018-07-12T10:50:04.004Z,94904.02
2018-07-12T10:52:32.833Z,94907.84
2018-07-12T10:55:01.782Z,94910.63
2018-07-12T10:57:30.638Z,94909.03
2018-07-12T10:59:59.435Z,94903.99
2018-07-12T11:02:28.213Z,94904.22
2018-07-12T11:04:57.005Z,94901.55
2018-07-12T11:07:25.812Z,94903.17
2018-07-12T11:09:54.586Z,94901.02
2018-07-12T11:12:23.437Z,94898.80
2018-07-12T11:14:52.194Z,94890.59
2018-07-12T11:17:21.889Z,94888.16
2018-07-12T11:19:50.638Z,94887.53
2018-07-12T11:22:19.867Z,94892.45
2018-07-12T11:24:48.654Z,94890.12
2018-07-12T11:27:17.537Z,94889.02
2018-07-12T11:29:53.973Z,94879.34
2018-07-12T11:32:22.745Z,94880.94
2018-07-12T11:34:52.062Z,94879.95
2018-07-12T11:37:25.864Z,94874.66
2018-07-12T11:39:54.602Z,94873.09
2018-07-12T11:42:23.583Z,94872.70
2018-07-12T11:44:52.370Z,94868.80
2018-07-12T11:47:21.341Z,94868.69
2018-07-12T11:49:50.142Z,94865.05
2018-07-12T11:52:18.894Z,94860.45
2018-07-12T11:54:47.767Z,94864.08
2018-07-12T11:57:16.610Z,94858.99
2018-07-12T11:59:45.345Z,94865.14
2018-07-12T12:02:14.185Z,94862.84
2018-07-12T12:04:42.950Z,94861.42
2018-07-12T12:07:11.686Z,94871.17
2018-07-12T12:09:40.413Z,94869.23
2018-07-12T12:12:09.206Z,94865.43
2018-07-12T12:14:38.157Z,94863.28
2018-07-12T12:17:06.957Z,94861.30
2018-07-12T12:19:36.750Z,94856.49
2018-07-12T12:22:05.473Z,94855.33
2018-07-12T12:24:34.310Z,94858.92
2018-07-12T12:27:03.097Z,94861.54
2018-07-12T12:29:31.862Z,94848.91
2018-07-12T12:32:00.623Z,94851.48
2018-07-12T12:34:29.431Z,94857.38
2018-07-12T12:36:58.172Z,94856.49
2018-07-12T12:39:26.932Z,94845.23
2018-07-12T12:41:55.764Z,94841.44
2018-07-12T12:44:24.679Z,94836.38
2018-07-12T12:46:53.468Z,94835.95
2018-07-12T12:49:22.242Z,94835.71
2018-07-12T12:51:51.022Z,94834.85
2018-07-12T12:54:19.758Z,94839.45
2018-07-12T12:56:48.513Z,94840.73
2018-07-12T12:59:17.266Z,94839.55
2018-07-12T13:01:46.097Z,94841.69
2018-07-12T13:04:14.854Z,94836.40
2018-07-12T13:06:43.643Z,94835.93
2018-07-12T13:09:12.565Z,94837.92
2018-07-12T13:11:41.326Z,94841.53
2018-07-12T13:14:10.168Z,94844.32
2018-07-12T13:16:38.930Z,94844.62
2018-07-12T13:19:07.678Z,94841.53
2018-07-12T13:21:36.451Z,94846.88
2018-07-12T13:24:05.662Z,94842.83
2018-07-12T13:26:34.483Z,94844.16
2018-07-12T13:29:03.282Z,94838.41
2018-07-12T13:31:32.046Z,94848.03
2018-07-12T13:34:00.910Z,94873.97
2018-07-12T13:36:29.671Z,94870.79
2018-07-12T13:38:58.491Z,94859.07
2018-07-12T13:41:27.253Z,94869.23
2018-07-12T13:44:07.428Z,94872.16
2018-07-12T13:46:36.237Z,94866.77
2018-07-12T13:49:05.193Z,94876.48
2018-07-12T13:51:34.035Z,94869.77
2018-07-12T13:54:02.818Z,94865.61
2018-07-12T13:56:31.617Z,94860.81
2018-07-12T13:59:00.491Z,94872.53
2018-07-12T14:01:29.365Z,94869.53
2018-07-12T14:03:58.107Z,94872.44
2018-07-12T14:06:26.915Z,94863.69
2018-07-12T14:08:55.727Z,94860.79
2018-07-12T14:11:24.518Z,94883.97
2018-07-12T14:13:53.515Z,94874.75
2018-07-12T14:16:22.803Z,94867.43
2018-07-12T14:18:51.712Z,94870.97
2018-07-12T14:21:20.476Z,94865.63
2018-07-12T14:23:49.278Z,94858.85
2018-07-12T14:26:18.015Z,94868.59
2018-07-12T14:28:46.783Z,94862.96
2018-07-12T14:31:15.780Z,94865.98
2018-07-12T14:33:44.560Z,94862.91
2018-07-12T14:36:13.378Z,94863.36
2018-07-12T14:38:42.122Z,94864.27
2018-07-12T14:41:10.918Z,94850.98
2018-07-12T14:43:39.745Z,94849.98
2018-07-12T14:46:08.851Z,94853.62
2018-07-12T14:48:37.671Z,94847.98
2018-07-12T14:51:06.462Z,94854.69
2018-07-12T14:53:35.251Z,94847.34
2018-07-12T14:56:04.220Z,94844.20
2018-07-12T14:58:32.959Z,94847.14
2018-07-12T15:01:01.776Z,94847.48
2018-07-12T15:03:30.624Z,94843.98
2018-07-12T15:05:59.412Z,94844.03
2018-07-12T15:08:28.200Z,94837.41
2018-07-12T15:10:56.994Z,94836.81
2018-07-12T15:13:26.055Z,94830.51
2018-07-12T15:15:54.841Z,94836.44
2018-07-12T15:18:23.616Z,94835.72
2018-07-12T15:20:52.403Z,94834.18
2018-07-12T15:23:21.227Z,94833.48
2018-07-12T15:25:50.030Z,94837.22
2018-07-12T15:28:19.003Z,94835.83
2018-07-12T15:30:47.762Z,94830.08
2018-07-12T15:33:16.557Z,94826.28
2018-07-12T15:35:45.398Z,94821.23
2018-07-12T15:38:14.302Z,94828.06
2018-07-12T15:40:43.134Z,94822.92
2018-07-12T15:43:13.050Z,94822.37
2018-07-12T15:45:45.713Z,94822.23
2018-07-12T15:48:16.004Z,94825.30
2018-07-12T15:50:46.002Z,94827.63
2018-07-12T15:53:16.720Z,94826.50
2018-07-12T15:55:46.132Z,94824.44
2018-07-12T15:58:14.959Z,94818.25
2018-07-12T16:00:43.782Z,94823.92
2018-07-12T16:03:12.579Z,94817.55
2018-07-12T16:05:41.466Z,94818.78
2018-07-12T16:08:10.266Z,94821.57
2018-07-12T16:10:39.311Z,94822.02
2018-07-12T16:13:08.440Z,94825.98
2018-07-12T16:15:37.223Z,94825.37
2018-07-12T16:18:06.035Z,94828.23
2018-07-12T16:20:34.791Z,94833.75
2018-07-12T16:23:04.478Z,94830.31
2018-07-12T16:25:33.357Z,94829.36
2018-07-12T16:28:02.140Z,94831.06
2018-07-12T16:30:30.949Z,94829.95
2018-07-12T16:32:59.739Z,94825.92
2018-07-12T16:35:28.613Z,94831.69
2018-07-12T16:37:57.491Z,94835.30
2018-07-12T16:40:26.984Z,94833.76
2018-07-12T16:42:55.768Z,94837.11
2018-07-12T16:45:24.601Z,94832.91
2018-07-12T16:47:53.408Z,94831.56
2018-07-12T16:50:22.256Z,94828.97
2018-07-12T16:52:51.016Z,94833.40
2018-07-12T16:55:19.821Z,94834.67
2018-07-12T16:57:48.634Z,94838.70
2018-07-12T17:00:19.794Z,94840.68
2018-07-12T17:02:49.458Z,94833.24
2018-07-12T17:05:20.218Z,94833.49
2018-07-12T17:07:49.228Z,94835.13
2018-07-12T17:10:18.149Z,94839.58
2018-07-12T17:12:47.031Z,94843.84
2018-07-12T17:15:15.835Z,94850.39
2018-07-12T19:19:10.954Z,94935.78
2018-07-12T19:21:40.167Z,94933.34
2018-07-12T19:24:08.948Z,94938.60
2018-07-12T19:26:38.540Z,94935.36
2018-07-12T19:29:07.627Z,94928.60
2018-07-12T19:31:36.471Z,94932.02
2018-07-12T19:34:05.274Z,94934.09
2018-07-12T19:36:34.063Z,94934.59
2018-07-12T19:39:03.001Z,94930.83
2018-07-12T19:41:32.156Z,94930.03
2018-07-12T19:44:01.158Z,94933.78
2018-07-12T19:46:30.085Z,94932.75
2018-07-12T19:48:59.175Z,94941.94
2018-07-12T19:51:29.157Z,94944.70
2018-07-12T19:53:57.930Z,94941.27
2018-07-12T19:56:26.753Z,94939.49
2018-07-12T19:58:55.652Z,94940.86
2018-07-12T20:01:24.632Z,94944.88
2018-07-12T20:03:53.501Z,94945.98
2018-07-12T20:06:22.515Z,94945.73
2018-07-12T20:08:51.371Z,94945.73
2018-07-12T20:11:20.176Z,94954.55
2018-07-12T20:13:49.049Z,94944.66
2018-07-12T20:16:17.947Z,94956.69
2018-07-12T20:18:46.735Z,94956.70
2018-07-12T20:21:15.594Z,94955.36
2018-07-12T20:23:44.360Z,94958.34
2018-07-12T20:26:15.215Z,94959.42
2018-07-12T20:28:44.156Z,94958.65
2018-07-12T20:31:13.012Z,94961.05
2018-07-12T20:33:42.344Z,94963.20
2018-07-12T20:36:11.293Z,94958.65
2018-07-12T20:38:40.882Z,94958.64
2018-07-12T20:41:09.703Z,94961.55
2018-07-12T20:43:38.559Z,94961.83
2018-07-12T20:46:08.466Z,94963.46
2018-07-12T20:48:37.264Z,94964.30
2018-07-12T20:51:06.364Z,94963.50
2018-07-12T20:53:35.171Z,94964.03
2018-07-12T20:56:03.981Z,94968.84
2018-07-12T20:58:32.779Z,94964.33
2018-07-12T21:01:01.569Z,94960.34
2018-07-12T21:03:30.510Z,94965.70
2018-07-12T21:05:59.324Z,94966.23
2018-07-12T21:08:28.148Z,94971.87
2018-07-12T21:10:56.884Z,94974.77
2018-07-12T21:13:25.688Z,94977.44
2018-07-12T21:15:54.532Z,94986.02
2018-07-12T21:18:23.343Z,94980.16
2018-07-12T21:20:52.158Z,94983.12
2018-07-12T21:23:20.928Z,94979.92
2018-07-12T21:25:49.736Z,94987.13
2018-07-12T21:28:18.537Z,94985.52
2018-07-12T21:30:47.386Z,94984.98
2018-07-12T21:33:16.191Z,94983.92
2018-07-12T21:35:45.146Z,94980.98
2018-07-12T21:38:14.051Z,94974.84
2018-07-12T21:40:42.851Z,94974.02
2018-07-12T21:43:11.703Z,94973.77
2018-07-12T21:45:40.484Z,94979.09
2018-07-12T21:48:09.365Z,94983.39
2018-07-12T21:50:38.159Z,94985.23
2018-07-12T21:53:07.011Z,94987.91
2018-07-12T21:55:35.831Z,94986.58
2018-07-12T21:58:04.649Z,94985.77
2018-07-12T22:00:34.137Z,94977.77
2018-07-12T22:03:02.946Z,94982.32
2018-07-12T22:05:31.752Z,94979.66
2018-07-12T22:08:09.403Z,94983.92
2018-07-12T22:10:38.977Z,94986.30
2018-07-12T22:13:08.064Z,94976.17
2018-07-12T22:15:36.887Z,94974.57
2018-07-12T22:18:05.722Z,94978.83
2018-07-12T22:20:34.547Z,94972.17
2018-07-12T22:23:03.857Z,94976.18
2018-07-12T22:25:33.143Z,94976.69
2018-07-12T22:28:01.996Z,94975.34
2018-07-12T22:30:31.290Z,94975.86
2018-07-12T22:33:01.454Z,94973.45
2018-07-12T22:35:30.374Z,94979.05
2018-07-12T22:38:00.304Z,94976.91
2018-07-12T22:40:29.299Z,94977.70
2018-07-12T22:42:58.366Z,94977.45
2018-07-12T22:45:27.144Z,94980.10
2018-07-12T22:47:56.169Z,94981.16
2018-07-12T22:50:25.336Z,94980.87
2018-07-12T22:52:54.263Z,94990.23
2018-07-12T22:55:23.175Z,94987.84
2018-07-12T22:57:51.959Z,94987.03
2018-07-12T23:00:20.892Z,94992.63
2018-07-12T23:02:49.686Z,94992.11
2018-07-12T23:05:18.530Z,94983.53
2018-07-12T23:07:47.362Z,94981.69
2018-07-12T23:10:16.137Z,94982.20
2018-07-12T23:12:44.922Z,94979.27
2018-07-12T23:15:13.682Z,94981.92
2018-07-12T23:17:42.469Z,94984.53
2018-07-12T23:20:11.280Z,94982.09
2018-07-12T23:22:40.082Z,94980.43
2018-07-12T23:25:08.847Z,94980.96
2018-07-12T23:27:37.619Z,94976.41
2018-07-12T23:30:07.048Z,94981.48
2018-07-12T23:32:35.831Z,94979.60
2018-07-12T23:35:04.700Z,94978.29
2018-07-12T23:37:33.520Z,94973.74
2018-07-12T23:40:02.300Z,94974.50
2018-07-12T23:42:31.036Z,94972.40
2018-07-12T23:44:59.819Z,94972.40
2018-07-12T23:47:28.612Z,94973.19
2018-07-12T23:49:57.399Z,94969.21
2018-07-12T23:52:26.185Z,94967.59
2018-07-12T23:54:54.997Z,94967.85
2018-07-12T23:57:23.955Z,94970.52
2018-07-12T23:59:52.697Z,94965.45
